Cistern, Texas
Current Conditions -  °F | °C
As of 11:50 AM on Friday 19 Dec 2014 (Local Time) from K3T5 Reporting Station
Broken Clouds Broken Clouds  
Wind Chill: 58°   Ceiling: 3600
Heat Index: 58°   Visibility: 10mi
Dew Point: 53°   Wind: 10mph
Humidity: 84%   Direction: 60°ENE
Pressure: 30.06"   Gusts: 17mph
Location:  29.7626°N, 97.1228°W
Report Text: K3T5 191750Z AUTO 06009G15KT 10SM BKN036 BKN043 15/12 A3006 RMK AO2 60030 T01450118 10146 20107
Loading
Personal Weather Stations






























Interactive Weather Map New forecast layout! Learn more

10-Day Weather Forecast

Advertisements
Track Severe Weather on mobile